sensor_id;sensor_type;location;lat;lon;timestamp;pressure;altitude;pressure_sealevel;temperature;humidity
82951;BME280;72737;53.332;6.514;2024-02-21T00:00:36;101810.06;;;15.69;62.10
82951;BME280;72737;53.332;6.514;2024-02-21T00:03:03;101809.50;;;15.67;62.70
82951;BME280;72737;53.332;6.514;2024-02-21T00:05:30;101786.50;;;15.63;62.70
82951;BME280;72737;53.332;6.514;2024-02-21T00:07:55;101790.06;;;15.63;62.88
82951;BME280;72737;53.332;6.514;2024-02-21T00:10:21;101773.66;;;15.58;62.99
82951;BME280;72737;53.332;6.514;2024-02-21T00:12:46;101741.03;;;15.57;62.74
82951;BME280;72737;53.332;6.514;2024-02-21T00:15:12;101752.81;;;15.57;62.93
82951;BME280;72737;53.332;6.514;2024-02-21T00:17:38;101760.47;;;15.60;62.77
82951;BME280;72737;53.332;6.514;2024-02-21T00:20:05;101764.84;;;15.61;62.95
82951;BME280;72737;53.332;6.514;2024-02-21T00:22:30;101770.59;;;15.60;63.03
82951;BME280;72737;53.332;6.514;2024-02-21T00:24:59;101772.25;;;15.51;63.08
82951;BME280;72737;53.332;6.514;2024-02-21T00:27:24;101752.56;;;15.59;62.70
82951;BME280;72737;53.332;6.514;2024-02-21T00:29:50;101749.53;;;15.55;62.68
82951;BME280;72737;53.332;6.514;2024-02-21T00:32:16;101757.22;;;15.53;63.12
82951;BME280;72737;53.332;6.514;2024-02-21T00:34:41;101758.00;;;15.64;62.61
82951;BME280;72737;53.332;6.514;2024-02-21T00:37:06;101751.16;;;15.61;62.98
82951;BME280;72737;53.332;6.514;2024-02-21T00:39:32;101739.97;;;15.53;62.95
82951;BME280;72737;53.332;6.514;2024-02-21T00:41:57;101749.75;;;15.69;63.07
82951;BME280;72737;53.332;6.514;2024-02-21T00:44:22;101738.25;;;15.67;62.99
82951;BME280;72737;53.332;6.514;2024-02-21T00:46:48;101733.06;;;15.60;63.29
82951;BME280;72737;53.332;6.514;2024-02-21T00:49:13;101715.28;;;15.58;63.02
82951;BME280;72737;53.332;6.514;2024-02-21T00:51:39;101716.59;;;15.65;62.99
82951;BME280;72737;53.332;6.514;2024-02-21T00:54:04;101721.00;;;15.66;63.04
82951;BME280;72737;53.332;6.514;2024-02-21T00:56:29;101728.34;;;15.71;63.20
82951;BME280;72737;53.332;6.514;2024-02-21T00:58:56;101734.94;;;15.70;62.84
82951;BME280;72737;53.332;6.514;2024-02-21T01:01:25;101727.03;;;15.63;63.22
82951;BME280;72737;53.332;6.514;2024-02-21T01:03:51;101730.88;;;15.62;63.08
82951;BME280;72737;53.332;6.514;2024-02-21T01:06:19;101721.88;;;15.57;63.09
82951;BME280;72737;53.332;6.514;2024-02-21T01:08:46;101719.09;;;15.62;63.15
82951;BME280;72737;53.332;6.514;2024-02-21T01:11:11;101732.56;;;15.58;63.26
82951;BME280;72737;53.332;6.514;2024-02-21T01:13:37;101725.41;;;15.62;63.79
82951;BME280;72737;53.332;6.514;2024-02-21T01:16:03;101722.09;;;15.60;63.54
82951;BME280;72737;53.332;6.514;2024-02-21T01:18:28;101728.41;;;15.61;63.90
82951;BME280;72737;53.332;6.514;2024-02-21T01:20:53;101705.19;;;15.53;63.74
82951;BME280;72737;53.332;6.514;2024-02-21T01:23:19;101719.94;;;15.57;63.70
82951;BME280;72737;53.332;6.514;2024-02-21T01:25:44;101716.66;;;15.50;64.03
82951;BME280;72737;53.332;6.514;2024-02-21T01:28:10;101717.47;;;15.51;64.03
82951;BME280;72737;53.332;6.514;2024-02-21T01:30:35;101714.50;;;15.52;64.33
82951;BME280;72737;53.332;6.514;2024-02-21T01:33:00;101718.56;;;15.55;63.95
82951;BME280;72737;53.332;6.514;2024-02-21T01:35:26;101714.19;;;15.59;63.57
82951;BME280;72737;53.332;6.514;2024-02-21T01:37:51;101703.78;;;15.56;63.77
82951;BME280;72737;53.332;6.514;2024-02-21T01:40:17;101716.41;;;15.52;64.33
82951;BME280;72737;53.332;6.514;2024-02-21T01:42:43;101710.09;;;15.56;63.97
82951;BME280;72737;53.332;6.514;2024-02-21T01:45:08;101708.72;;;15.59;64.00
82951;BME280;72737;53.332;6.514;2024-02-21T01:47:35;101710.91;;;15.57;63.29
82951;BME280;72737;53.332;6.514;2024-02-21T01:50:01;101716.34;;;15.62;63.69
82951;BME280;72737;53.332;6.514;2024-02-21T01:52:28;101719.66;;;15.64;63.63
82951;BME280;72737;53.332;6.514;2024-02-21T01:54:54;101708.13;;;15.62;63.37
82951;BME280;72737;53.332;6.514;2024-02-21T01:57:20;101700.22;;;15.55;63.86
82951;BME280;72737;53.332;6.514;2024-02-21T01:59:45;101708.19;;;15.52;63.36
82951;BME280;72737;53.332;6.514;2024-02-21T02:02:11;101712.84;;;15.51;63.82
82951;BME280;72737;53.332;6.514;2024-02-21T02:04:38;101701.34;;;15.49;63.68
82951;BME280;72737;53.332;6.514;2024-02-21T02:07:06;101694.22;;;15.48;63.81
82951;BME280;72737;53.332;6.514;2024-02-21T02:09:32;101692.84;;;15.45;63.83
82951;BME280;72737;53.332;6.514;2024-02-21T02:11:58;101702.69;;;15.46;64.32
82951;BME280;72737;53.332;6.514;2024-02-21T02:14:25;101702.16;;;15.44;63.73
82951;BME280;72737;53.332;6.514;2024-02-21T02:16:50;101684.66;;;15.35;64.13
82951;BME280;72737;53.332;6.514;2024-02-21T02:19:16;101695.03;;;15.49;63.92
82951;BME280;72737;53.332;6.514;2024-02-21T02:21:46;101681.84;;;15.51;63.92
82951;BME280;72737;53.332;6.514;2024-02-21T02:24:19;101685.44;;;15.51;63.43
82951;BME280;72737;53.332;6.514;2024-02-21T02:26:45;101689.56;;;15.49;63.70
82951;BME280;72737;53.332;6.514;2024-02-21T02:29:11;101689.00;;;15.57;63.96
82951;BME280;72737;53.332;6.514;2024-02-21T02:31:36;101686.78;;;15.59;63.43
82951;BME280;72737;53.332;6.514;2024-02-21T02:34:03;101681.03;;;15.55;64.12
82951;BME280;72737;53.332;6.514;2024-02-21T02:36:31;101680.78;;;15.52;64.24
82951;BME280;72737;53.332;6.514;2024-02-21T02:38:56;101669.84;;;15.52;64.20
82951;BME280;72737;53.332;6.514;2024-02-21T02:41:22;101670.91;;;15.56;63.72
82951;BME280;72737;53.332;6.514;2024-02-21T02:43:47;101668.16;;;15.56;63.71
82951;BME280;72737;53.332;6.514;2024-02-21T02:46:13;101654.44;;;15.61;63.64
82951;BME280;72737;53.332;6.514;2024-02-21T02:48:38;101653.34;;;15.62;63.60
82951;BME280;72737;53.332;6.514;2024-02-21T02:51:04;101654.47;;;15.56;63.77
82951;BME280;72737;53.332;6.514;2024-02-21T02:53:29;101655.03;;;15.53;63.85
82951;BME280;72737;53.332;6.514;2024-02-21T02:55:54;101650.63;;;15.57;63.69
82951;BME280;72737;53.332;6.514;2024-02-21T02:58:21;101654.47;;;15.56;64.14
82951;BME280;72737;53.332;6.514;2024-02-21T03:00:46;101643.00;;;15.54;63.60
82951;BME280;72737;53.332;6.514;2024-02-21T03:03:11;101639.69;;;15.46;64.51
82951;BME280;72737;53.332;6.514;2024-02-21T03:05:37;101648.75;;;15.47;64.57
82951;BME280;72737;53.332;6.514;2024-02-21T03:08:02;101652.31;;;15.53;64.42
82951;BME280;72737;53.332;6.514;2024-02-21T03:10:32;101646.81;;;15.48;64.51
82951;BME280;72737;53.332;6.514;2024-02-21T03:12:58;101656.41;;;15.45;64.00
82951;BME280;72737;53.332;6.514;2024-02-21T03:15:24;101644.59;;;15.50;64.32
82951;BME280;72737;53.332;6.514;2024-02-21T03:17:49;101647.91;;;15.52;63.92
82951;BME280;72737;53.332;6.514;2024-02-21T03:20:15;101636.97;;;15.46;63.78
82951;BME280;72737;53.332;6.514;2024-02-21T03:22:41;101641.59;;;15.56;64.00
82951;BME280;72737;53.332;6.514;2024-02-21T03:25:07;101639.69;;;15.52;63.99
82951;BME280;72737;53.332;6.514;2024-02-21T03:27:33;101641.63;;;15.51;63.48
82951;BME280;72737;53.332;6.514;2024-02-21T03:29:58;101639.69;;;15.52;63.75
82951;BME280;72737;53.332;6.514;2024-02-21T03:32:24;101643.53;;;15.45;63.53
82951;BME280;72737;53.332;6.514;2024-02-21T03:34:49;101647.34;;;15.50;64.02
82951;BME280;72737;53.332;6.514;2024-02-21T03:37:15;101641.09;;;15.44;63.92
82951;BME280;72737;53.332;6.514;2024-02-21T03:39:40;101648.47;;;15.49;63.49
82951;BME280;72737;53.332;6.514;2024-02-21T03:42:06;101642.19;;;15.43;63.58
82951;BME280;72737;53.332;6.514;2024-02-21T03:44:31;101633.16;;;15.42;63.73
82951;BME280;72737;53.332;6.514;2024-02-21T03:47:00;101633.16;;;15.42;63.82
82951;BME280;72737;53.332;6.514;2024-02-21T03:49:26;101634.25;;;15.41;63.94
82951;BME280;72737;53.332;6.514;2024-02-21T03:51:51;101645.75;;;15.43;63.82
82951;BME280;72737;53.332;6.514;2024-02-21T03:54:18;101639.19;;;15.39;63.65
82951;BME280;72737;53.332;6.514;2024-02-21T03:56:43;101634.84;;;15.38;64.19
82951;BME280;72737;53.332;6.514;2024-02-21T03:59:09;101617.84;;;15.36;63.85
82951;BME280;72737;53.332;6.514;2024-02-21T04:01:35;101618.13;;;15.35;64.07
82951;BME280;72737;53.332;6.514;2024-02-21T04:04:01;101617.28;;;15.39;63.90
82951;BME280;72737;53.332;6.514;2024-02-21T04:06:26;101612.94;;;15.33;64.04
82951;BME280;72737;53.332;6.514;2024-02-21T04:08:52;101617.78;;;15.46;64.09
82951;BME280;72737;53.332;6.514;2024-02-21T04:11:17;101618.38;;;15.43;63.54
82951;BME280;72737;53.332;6.514;2024-02-21T04:13:44;101623.88;;;15.38;64.42
82951;BME280;72737;53.332;6.514;2024-02-21T04:16:10;101627.69;;;15.42;64.25
82951;BME280;72737;53.332;6.514;2024-02-21T04:18:35;101618.59;;;15.47;64.22
82951;BME280;72737;53.332;6.514;2024-02-21T04:21:01;101623.06;;;15.38;64.51
82951;BME280;72737;53.332;6.514;2024-02-21T04:23:26;101610.72;;;15.35;64.00
82951;BME280;72737;53.332;6.514;2024-02-21T04:25:52;101629.34;;;15.38;64.74
82951;BME280;72737;53.332;6.514;2024-02-21T04:28:17;101620.84;;;15.35;64.52
82951;BME280;72737;53.332;6.514;2024-02-21T04:30:43;101618.91;;;15.40;64.63
82951;BME280;72737;53.332;6.514;2024-02-21T04:33:08;101622.19;;;15.42;63.71
82951;BME280;72737;53.332;6.514;2024-02-21T04:35:36;101629.03;;;15.40;64.03
82951;BME280;72737;53.332;6.514;2024-02-21T04:38:01;101624.97;;;15.37;64.44
82951;BME280;72737;53.332;6.514;2024-02-21T04:40:27;101624.38;;;15.40;63.87
82951;BME280;72737;53.332;6.514;2024-02-21T04:42:53;101614.03;;;15.32;63.82
82951;BME280;72737;53.332;6.514;2024-02-21T04:45:19;101619.47;;;15.42;64.36
82951;BME280;72737;53.332;6.514;2024-02-21T04:47:44;101615.63;;;15.43;64.00
82951;BME280;72737;53.332;6.514;2024-02-21T04:50:10;101601.94;;;15.43;64.35
82951;BME280;72737;53.332;6.514;2024-02-21T04:52:35;101605.78;;;15.42;64.02
82951;BME280;72737;53.332;6.514;2024-02-21T04:55:01;101603.59;;;15.34;64.43
82951;BME280;72737;53.332;6.514;2024-02-21T04:57:26;101592.66;;;15.34;64.60
82951;BME280;72737;53.332;6.514;2024-02-21T04:59:52;101598.94;;;15.35;64.12
82951;BME280;72737;53.332;6.514;2024-02-21T05:02:17;101597.34;;;15.34;64.15
82951;BME280;72737;53.332;6.514;2024-02-21T05:04:45;101588.34;;;15.28;64.37
82951;BME280;72737;53.332;6.514;2024-02-21T05:07:10;101578.94;;;15.39;64.56
82951;BME280;72737;53.332;6.514;2024-02-21T05:09:37;101574.00;;;15.41;64.17
82951;BME280;72737;53.332;6.514;2024-02-21T05:12:03;101567.94;;;15.44;63.96
82951;BME280;72737;53.332;6.514;2024-02-21T05:14:28;101569.03;;;15.49;64.41
82951;BME280;72737;53.332;6.514;2024-02-21T05:16:54;101576.97;;;15.45;63.87
82951;BME280;72737;53.332;6.514;2024-02-21T05:19:19;101569.53;;;15.51;63.66
82951;BME280;72737;53.332;6.514;2024-02-21T05:21:45;101576.41;;;15.53;63.55
82951;BME280;72737;53.332;6.514;2024-02-21T05:24:10;101572.81;;;15.58;64.01
82951;BME280;72737;53.332;6.514;2024-02-21T05:26:36;101571.19;;;15.57;63.63
82951;BME280;72737;53.332;6.514;2024-02-21T05:29:01;101576.06;;;15.60;63.86
82951;BME280;72737;53.332;6.514;2024-02-21T05:32:03;101571.13;;;15.62;64.23
82951;BME280;72737;53.332;6.514;2024-02-21T05:34:29;101569.16;;;15.72;64.22
82951;BME280;72737;53.332;6.514;2024-02-21T05:36:54;101568.28;;;15.77;63.91
82951;BME280;72737;53.332;6.514;2024-02-21T05:39:20;101570.44;;;15.80;63.67
82951;BME280;72737;53.332;6.514;2024-02-21T05:41:47;101569.66;;;15.74;63.76
82951;BME280;72737;53.332;6.514;2024-02-21T05:44:13;101555.25;;;15.64;63.82
82951;BME280;72737;53.332;6.514;2024-02-21T05:46:38;101565.06;;;15.65;63.93
82951;BME280;72737;53.332;6.514;2024-02-21T05:49:04;101555.53;;;15.62;64.10
82951;BME280;72737;53.332;6.514;2024-02-21T05:51:34;101561.28;;;15.61;63.56
82951;BME280;72737;53.332;6.514;2024-02-21T05:53:59;101549.84;;;15.54;63.79
82951;BME280;72737;53.332;6.514;2024-02-21T05:56:25;101549.31;;;15.46;63.83
82951;BME280;72737;53.332;6.514;2024-02-21T05:58:50;101540.31;;;15.41;63.77
82951;BME280;72737;53.332;6.514;2024-02-21T06:01:15;101541.94;;;15.42;63.73
82951;BME280;72737;53.332;6.514;2024-02-21T06:03:41;101537.34;;;15.37;63.54
82951;BME280;72737;53.332;6.514;2024-02-21T06:06:06;101538.16;;;15.38;63.48
82951;BME280;72737;53.332;6.514;2024-02-21T06:08:32;101529.38;;;15.36;64.24
82951;BME280;72737;53.332;6.514;2024-02-21T06:10:57;101540.06;;;15.37;63.47
82951;BME280;72737;53.332;6.514;2024-02-21T06:13:26;101532.94;;;15.36;63.80
82951;BME280;72737;53.332;6.514;2024-02-21T06:15:52;101517.69;;;15.25;63.62
82951;BME280;72737;53.332;6.514;2024-02-21T06:18:18;101536.78;;;15.35;63.66
82951;BME280;72737;53.332;6.514;2024-02-21T06:20:45;101519.09;;;15.23;63.58
82951;BME280;72737;53.332;6.514;2024-02-21T06:23:12;101523.97;;;15.26;63.57
82951;BME280;72737;53.332;6.514;2024-02-21T06:25:38;101528.09;;;15.28;63.98
82951;BME280;72737;53.332;6.514;2024-02-21T06:28:03;101517.13;;;15.28;63.89
82951;BME280;72737;53.332;6.514;2024-02-21T06:30:29;101518.19;;;15.32;63.55
82951;BME280;72737;53.332;6.514;2024-02-21T06:32:54;101511.63;;;15.33;63.08
82951;BME280;72737;53.332;6.514;2024-02-21T06:35:24;101514.06;;;15.35;63.32
82951;BME280;72737;53.332;6.514;2024-02-21T06:37:51;101514.91;;;15.30;63.63
82951;BME280;72737;53.332;6.514;2024-02-21T06:40:23;101513.88;;;15.21;64.69
82951;BME280;72737;53.332;6.514;2024-02-21T06:42:50;101512.31;;;15.54;64.18
82951;BME280;72737;53.332;6.514;2024-02-21T06:45:16;101521.25;;;15.65;64.79
82951;BME280;72737;53.332;6.514;2024-02-21T06:47:43;101519.66;;;15.59;64.75
82951;BME280;72737;53.332;6.514;2024-02-21T06:50:09;101519.13;;;15.57;64.98
82951;BME280;72737;53.332;6.514;2024-02-21T06:52:36;101511.38;;;15.69;64.19
82951;BME280;72737;53.332;6.514;2024-02-21T06:55:01;101521.25;;;15.65;64.75
82951;BME280;72737;53.332;6.514;2024-02-21T06:57:28;101512.50;;;15.63;64.11
82951;BME280;72737;53.332;6.514;2024-02-21T06:59:54;101503.19;;;15.64;64.41
82951;BME280;72737;53.332;6.514;2024-02-21T07:02:21;101512.66;;;15.76;64.33
82951;BME280;72737;53.332;6.514;2024-02-21T07:04:46;101506.69;;;15.69;63.80
82951;BME280;72737;53.332;6.514;2024-02-21T07:07:12;101506.94;;;15.73;63.86
82951;BME280;72737;53.332;6.514;2024-02-21T07:09:38;101498.75;;;15.68;63.99
82951;BME280;72737;53.332;6.514;2024-02-21T07:12:04;101513.19;;;15.78;63.54
82951;BME280;72737;53.332;6.514;2024-02-21T07:14:30;101508.59;;;15.74;63.21
82951;BME280;72737;53.332;6.514;2024-02-21T07:16:58;101504.44;;;15.76;63.25
82951;BME280;72737;53.332;6.514;2024-02-21T07:19:23;101511.00;;;15.75;63.25
82951;BME280;72737;53.332;6.514;2024-02-21T07:21:48;101507.16;;;15.76;62.73
82951;BME280;72737;53.332;6.514;2024-02-21T07:24:15;101502.50;;;15.77;61.76
82951;BME280;72737;53.332;6.514;2024-02-21T07:26:43;101502.50;;;15.77;61.82
82951;BME280;72737;53.332;6.514;2024-02-21T07:29:09;101495.97;;;15.73;61.68
82951;BME280;72737;53.332;6.514;2024-02-21T07:31:42;101487.75;;;15.73;61.69
82951;BME280;72737;53.332;6.514;2024-02-21T07:34:08;101496.50;;;15.75;61.24
82951;BME280;72737;53.332;6.514;2024-02-21T07:36:35;101488.94;;;15.62;60.91
82951;BME280;72737;53.332;6.514;2024-02-21T07:39:02;101488.84;;;15.72;61.47
82951;BME280;72737;53.332;6.514;2024-02-21T07:41:28;101490.91;;;15.56;61.27
82951;BME280;72737;53.332;6.514;2024-02-21T07:43:55;101485.53;;;15.41;61.96
82951;BME280;72737;53.332;6.514;2024-02-21T07:46:21;101473.31;;;15.28;62.04
82951;BME280;72737;53.332;6.514;2024-02-21T07:48:46;101471.69;;;15.27;61.69
82951;BME280;72737;53.332;6.514;2024-02-21T07:51:12;101470.03;;;15.26;62.08
82951;BME280;72737;53.332;6.514;2024-02-21T07:53:41;101457.31;;;15.40;61.13
82951;BME280;72737;53.332;6.514;2024-02-21T07:56:11;101460.00;;;15.45;60.48
82951;BME280;72737;53.332;6.514;2024-02-21T07:58:37;101457.28;;;15.45;60.18
82951;BME280;72737;53.332;6.514;2024-02-21T08:01:02;101456.53;;;15.35;61.05
82951;BME280;72737;53.332;6.514;2024-02-21T08:03:28;101454.19;;;15.23;60.57
82951;BME280;72737;53.332;6.514;2024-02-21T08:05:53;101461.28;;;15.24;60.82
82951;BME280;72737;53.332;6.514;2024-02-21T08:08:18;101459.41;;;15.20;60.95
82951;BME280;72737;53.332;6.514;2024-02-21T08:10:46;101457.78;;;15.19;60.90
82951;BME280;72737;53.332;6.514;2024-02-21T08:13:12;101458.03;;;15.22;60.57
82951;BME280;72737;53.332;6.514;2024-02-21T08:15:37;101461.28;;;15.24;60.65
82951;BME280;72737;53.332;6.514;2024-02-21T08:18:05;101451.53;;;15.13;60.58
82951;BME280;72737;53.332;6.514;2024-02-21T08:20:30;101442.50;;;15.13;60.57
82951;BME280;72737;53.332;6.514;2024-02-21T08:22:55;101451.50;;;15.18;60.36
82951;BME280;72737;53.332;6.514;2024-02-21T08:25:21;101450.31;;;15.24;60.93
82951;BME280;72737;53.332;6.514;2024-02-21T08:27:46;101442.16;;;15.19;60.79
82951;BME280;72737;53.332;6.514;2024-02-21T08:30:12;101433.84;;;15.29;60.52
82951;BME280;72737;53.332;6.514;2024-02-21T08:32:37;101430.88;;;15.26;60.68
82951;BME280;72737;53.332;6.514;2024-02-21T08:35:03;101421.63;;;15.22;60.46
82951;BME280;72737;53.332;6.514;2024-02-21T08:37:30;101423.00;;;15.19;60.65
82951;BME280;72737;53.332;6.514;2024-02-21T08:39:55;101418.91;;;15.17;60.93
82951;BME280;72737;53.332;6.514;2024-02-21T08:42:21;101399.75;;;15.17;60.91
82951;BME280;72737;53.332;6.514;2024-02-21T08:44:46;101397.19;;;15.25;60.63
82951;BME280;72737;53.332;6.514;2024-02-21T08:47:13;101410.28;;;15.33;60.42
82951;BME280;72737;53.332;6.514;2024-02-21T08:49:38;101406.38;;;15.39;60.51
82951;BME280;72737;53.332;6.514;2024-02-21T08:52:04;101402.25;;;15.42;60.54
82951;BME280;72737;53.332;6.514;2024-02-21T08:54:31;101405.28;;;15.40;60.77
82951;BME280;72737;53.332;6.514;2024-02-21T08:56:57;101399.28;;;15.38;60.19
82951;BME280;72737;53.332;6.514;2024-02-21T08:59:23;101392.34;;;15.46;60.46
82951;BME280;72737;53.332;6.514;2024-02-21T09:01:48;101388.28;;;15.43;60.07
82951;BME280;72737;53.332;6.514;2024-02-21T09:04:14;101378.47;;;15.37;60.37
82951;BME280;72737;53.332;6.514;2024-02-21T09:06:40;101372.69;;;15.44;60.80
82951;BME280;72737;53.332;6.514;2024-02-21T09:09:10;101370.00;;;15.39;60.55
82951;BME280;72737;53.332;6.514;2024-02-21T09:11:36;101361.81;;;15.34;60.64
82951;BME280;72737;53.332;6.514;2024-02-21T09:14:02;101354.84;;;15.46;60.45
82951;BME280;72737;53.332;6.514;2024-02-21T09:16:31;101339.09;;;15.33;60.12
82951;BME280;72737;53.332;6.514;2024-02-21T09:18:57;101357.69;;;15.36;60.60
82951;BME280;72737;53.332;6.514;2024-02-21T09:21:22;101346.50;;;15.33;60.58
82951;BME280;72737;53.332;6.514;2024-02-21T09:23:58;101363.16;;;15.36;60.95
82951;BME280;72737;53.332;6.514;2024-02-21T09:26:24;101365.59;;;15.38;60.95
82951;BME280;72737;53.332;6.514;2024-02-21T09:28:50;101368.56;;;15.41;61.11
82951;BME280;72737;53.332;6.514;2024-02-21T09:31:16;101370.00;;;15.39;61.31
82951;BME280;72737;53.332;6.514;2024-02-21T09:33:41;101359.53;;;15.41;60.89
82951;BME280;72737;53.332;6.514;2024-02-21T09:36:07;101366.38;;;15.43;60.83
82951;BME280;72737;53.332;6.514;2024-02-21T09:38:32;101365.28;;;15.39;61.14
82951;BME280;72737;53.332;6.514;2024-02-21T09:44:15;101348.31;;;15.42;60.50
82951;BME280;72737;53.332;6.514;2024-02-21T09:47:00;101343.94;;;15.41;61.01
82951;BME280;72737;53.332;6.514;2024-02-21T09:49:32;101340.13;;;15.37;61.38
82951;BME280;72737;53.332;6.514;2024-02-21T09:52:00;101334.66;;;15.37;60.56
82951;BME280;72737;53.332;6.514;2024-02-21T09:54:30;101337.91;;;15.39;60.96
82951;BME280;72737;53.332;6.514;2024-02-21T09:57:13;101323.22;;;15.30;60.70
82951;BME280;72737;53.332;6.514;2024-02-21T09:59:55;101324.75;;;15.41;60.89
82951;BME280;72737;53.332;6.514;2024-02-21T10:02:21;101323.13;;;15.40;61.21
82951;BME280;72737;53.332;6.514;2024-02-21T10:04:49;101294.47;;;15.33;60.31
82951;BME280;72737;53.332;6.514;2024-02-21T10:07:15;101309.47;;;15.35;61.17
82951;BME280;72737;53.332;6.514;2024-02-21T10:09:40;101300.16;;;15.36;60.49
82951;BME280;72737;53.332;6.514;2024-02-21T10:12:12;101297.97;;;15.38;60.60
82951;BME280;72737;53.332;6.514;2024-02-21T10:14:37;101290.38;;;15.30;60.61
82951;BME280;72737;53.332;6.514;2024-02-21T10:17:03;101307.50;;;15.41;60.74
82951;BME280;72737;53.332;6.514;2024-02-21T10:19:35;101289.81;;;15.33;60.50
82951;BME280;72737;53.332;6.514;2024-02-21T10:22:05;101262.81;;;15.22;60.76
82951;BME280;72737;53.332;6.514;2024-02-21T10:24:33;101280.72;;;15.38;60.70
82951;BME280;72737;53.332;6.514;2024-02-21T10:27:04;101262.16;;;15.30;60.50
82951;BME280;72737;53.332;6.514;2024-02-21T10:29:32;101266.81;;;15.29;60.64
82951;BME280;72737;53.332;6.514;2024-02-21T10:32:08;101268.94;;;15.37;60.28
82951;BME280;72737;53.332;6.514;2024-02-21T10:34:35;101262.03;;;15.40;60.54
82951;BME280;72737;53.332;6.514;2024-02-21T10:37:05;101254.75;;;15.30;60.60
82951;BME280;72737;53.332;6.514;2024-02-21T10:39:38;101253.44;;;15.28;60.75
82951;BME280;72737;53.332;6.514;2024-02-21T10:42:04;101250.38;;;15.29;60.75
82951;BME280;72737;53.332;6.514;2024-02-21T10:44:31;101239.97;;;15.31;60.61
82951;BME280;72737;53.332;6.514;2024-02-21T10:46:59;101227.56;;;15.15;60.66
82951;BME280;72737;53.332;6.514;2024-02-21T10:49:26;101239.69;;;15.33;60.33
82951;BME280;72737;53.332;6.514;2024-02-21T10:55:04;101239.44;;;15.29;60.67
82951;BME280;72737;53.332;6.514;2024-02-21T10:57:31;101206.81;;;15.09;60.56
82951;BME280;72737;53.332;6.514;2024-02-21T10:59:58;101225.69;;;15.34;60.58
82951;BME280;72737;53.332;6.514;2024-02-21T11:02:24;101231.41;;;15.38;60.68
82951;BME280;72737;53.332;6.514;2024-02-21T11:04:50;101218.00;;;15.36;60.64
82951;BME280;72737;53.332;6.514;2024-02-21T11:07:18;101205.41;;;15.35;60.71
82951;BME280;72737;53.332;6.514;2024-02-21T11:09:51;101207.06;;;15.36;60.63
82951;BME280;72737;53.332;6.514;2024-02-21T11:12:20;101194.25;;;15.32;60.39
82951;BME280;72737;53.332;6.514;2024-02-21T11:14:47;101184.09;;;15.32;60.28
82951;BME280;72737;53.332;6.514;2024-02-21T11:17:19;101179.13;;;15.34;59.98
82951;BME280;72737;53.332;6.514;2024-02-21T11:19:51;101184.09;;;15.32;60.07
82951;BME280;72737;53.332;6.514;2024-02-21T11:22:18;101178.97;;;15.26;60.71
82951;BME280;72737;53.332;6.514;2024-02-21T11:24:43;101185.44;;;15.35;60.33
82951;BME280;72737;53.332;6.514;2024-02-21T11:27:21;101178.63;;;15.32;60.61
82951;BME280;72737;53.332;6.514;2024-02-21T11:29:55;101175.91;;;15.32;60.27
82951;BME280;72737;53.332;6.514;2024-02-21T11:32:21;101177.00;;;15.31;60.22
82951;BME280;72737;53.332;6.514;2024-02-21T11:35:05;101144.03;;;15.18;60.73
82951;BME280;72737;53.332;6.514;2024-02-21T11:37:35;101154.06;;;15.27;60.63
82951;BME280;72737;53.332;6.514;2024-02-21T11:40:04;101154.06;;;15.27;60.76
82951;BME280;72737;53.332;6.514;2024-02-21T11:42:32;101152.56;;;15.35;60.36
82951;BME280;72737;53.332;6.514;2024-02-21T11:44:57;101139.69;;;15.35;59.79
82951;BME280;72737;53.332;6.514;2024-02-21T11:47:23;101138.06;;;15.34;59.96
82951;BME280;72737;53.332;6.514;2024-02-21T11:49:49;101117.84;;;15.30;60.20
82951;BME280;72737;53.332;6.514;2024-02-21T11:52:21;101118.88;;;15.34;60.27
82951;BME280;72737;53.332;6.514;2024-02-21T11:54:48;101101.59;;;15.39;60.33
82951;BME280;72737;53.332;6.514;2024-02-21T11:57:13;101085.53;;;15.32;59.67
82951;BME280;72737;53.332;6.514;2024-02-21T11:59:40;101072.19;;;15.26;60.11
82951;BME280;72737;53.332;6.514;2024-02-21T12:02:06;101071.84;;;15.32;60.27
82951;BME280;72737;53.332;6.514;2024-02-21T12:04:33;101063.03;;;15.35;60.27
82951;BME280;72737;53.332;6.514;2024-02-21T12:06:59;101042.50;;;15.14;59.95
82951;BME280;72737;53.332;6.514;2024-02-21T12:09:25;101044.16;;;15.34;60.03
82951;BME280;72737;53.332;6.514;2024-02-21T12:12:04;101034.25;;;15.38;59.46
82951;BME280;72737;53.332;6.514;2024-02-21T12:14:32;101038.44;;;15.30;60.16
82951;BME280;72737;53.332;6.514;2024-02-21T12:16:58;101023.06;;;15.34;59.44
82951;BME280;72737;53.332;6.514;2024-02-21T12:19:24;101022.09;;;15.25;59.86
82951;BME280;72737;53.332;6.514;2024-02-21T12:21:49;101014.91;;;15.29;59.75
82951;BME280;72737;53.332;6.514;2024-02-21T12:24:22;101001.53;;;15.28;59.54
82951;BME280;72737;53.332;6.514;2024-02-21T12:26:51;101006.69;;;15.29;59.99
82951;BME280;72737;53.332;6.514;2024-02-21T12:29:18;101016.78;;;15.34;59.99
82951;BME280;72737;53.332;6.514;2024-02-21T12:31:45;101010.84;;;15.27;59.83
82951;BME280;72737;53.332;6.514;2024-02-21T12:34:11;100999.09;;;15.26;59.55
82951;BME280;72737;53.332;6.514;2024-02-21T12:36:41;100970.75;;;15.17;59.92
82951;BME280;72737;53.332;6.514;2024-02-21T12:39:10;100984.72;;;15.34;59.89
82951;BME280;72737;53.332;6.514;2024-02-21T12:41:36;100971.03;;;15.34;59.37
82951;BME280;72737;53.332;6.514;2024-02-21T12:44:06;100955.88;;;15.23;59.56
82951;BME280;72737;53.332;6.514;2024-02-21T12:46:35;100960.97;;;15.30;59.95
82951;BME280;72737;53.332;6.514;2024-02-21T12:49:01;100969.84;;;15.40;59.40
82951;BME280;72737;53.332;6.514;2024-02-21T12:51:27;100949.13;;;15.34;59.49
82951;BME280;72737;53.332;6.514;2024-02-21T12:53:52;100949.66;;;15.36;58.94